Time;durP1;ratioP1;P1;durP2;ratioP2;P2;SDS_P1;SDS_P2;PMS_P1;PMS_P2;Temp;Humidity;BMP_temperature;BMP_pressure;BME280_temperature;BME280_humidity;BME280_pressure;Samples;Min_cycle;Max_cycle;Signal;HPM_P1;HPM_P2
2023/04/24 00:01:36;;;;;;;1.90;1.50;;;10.80;99.90;;;;;;5214267;22;20210;-89
2023/04/24 00:09:15;;;;;;;3.67;1.30;;;10.80;99.90;;;;;;5094120;22;20221;-90
2023/04/24 00:11:42;;;;;;;2.53;1.40;;;10.70;99.90;;;;;;5038314;28;20259;-90
2023/04/24 00:14:09;;;;;;;2.03;1.10;;;10.70;99.90;;;;;;5040023;28;20270;-90
2023/04/24 00:19:13;;;;;;;2.25;1.60;;;10.60;99.90;;;;;;5098241;22;20217;-89
2023/04/24 00:24:15;;;;;;;2.88;1.30;;;10.70;99.90;;;;;;5149503;22;20245;-91
2023/04/24 00:29:14;;;;;;;1.30;1.20;;;10.70;99.90;;;;;;5034036;28;20245;-89
2023/04/24 00:31:41;;;;;;;1.40;1.30;;;10.70;99.90;;;;;;5395566;22;20210;-92
2023/04/24 00:34:07;;;;;;;1.27;1.15;;;10.70;99.90;;;;;;5140023;22;20285;-91
2023/04/24 00:36:36;;;;;;;1.35;1.25;;;10.60;99.90;;;;;;5073944;28;20270;-90
2023/04/24 00:39:03;;;;;;;2.42;1.40;;;10.60;99.90;;;;;;5077257;28;20188;-89
2023/04/24 00:41:30;;;;;;;1.15;1.10;;;10.60;99.90;;;;;;5076136;28;20182;-90
2023/04/24 00:43:57;;;;;;;2.47;1.80;;;10.60;99.90;;;;;;5815928;22;20209;-91
2023/04/24 00:46:24;;;;;;;1.20;1.10;;;10.60;99.90;;;;;;5054663;28;20195;-90
2023/04/24 00:48:51;;;;;;;1.98;1.77;;;10.60;99.90;;;;;;5332270;22;20212;-91
2023/04/24 00:51:18;;;;;;;0.95;0.90;;;10.70;99.90;;;;;;5051533;28;20210;-89
2023/04/24 00:53:46;;;;;;;1.60;1.25;;;10.60;99.90;;;;;;5056443;28;20254;-89
2023/04/24 00:56:14;;;;;;;2.45;1.00;;;10.60;99.90;;;;;;5037767;28;20190;-91
2023/04/24 00:58:41;;;;;;;0.98;0.95;;;10.60;99.90;;;;;;5052432;28;20209;-91
2023/04/24 01:01:08;;;;;;;1.00;1.00;;;10.50;99.90;;;;;;5039131;28;20178;-90
2023/04/24 01:03:37;;;;;;;0.88;0.88;;;10.50;99.90;;;;;;5153602;22;20478;-89
2023/04/24 01:06:05;;;;;;;1.38;0.90;;;10.40;99.90;;;;;;5112214;22;20252;-91
2023/04/24 01:11:09;;;;;;;1.73;1.00;;;10.40;99.90;;;;;;5414708;22;20217;-90
2023/04/24 01:13:36;;;;;;;1.35;1.00;;;10.40;99.90;;;;;;5097349;22;20233;-90
2023/04/24 01:16:03;;;;;;;1.83;0.82;;;10.40;99.90;;;;;;5075024;28;20270;-91
2023/04/24 01:18:30;;;;;;;1.20;0.82;;;10.30;99.90;;;;;;5074416;28;20220;-89
2023/04/24 01:23:33;;;;;;;1.10;0.93;;;10.30;99.90;;;;;;5289286;22;20289;-90
2023/04/24 01:26:00;;;;;;;1.35;1.20;;;10.30;99.90;;;;;;5494498;22;20210;-90
2023/04/24 01:28:27;;;;;;;1.20;1.10;;;10.30;99.90;;;;;;5019529;28;20203;-91
2023/04/24 01:30:54;;;;;;;1.00;0.82;;;10.20;99.90;;;;;;5037100;28;20585;-90
2023/04/24 01:33:22;;;;;;;0.80;0.80;;;10.30;99.90;;;;;;5030389;28;20207;-91
2023/04/24 01:38:24;;;;;;;0.95;0.73;;;10.30;99.90;;;;;;5567494;22;20248;-90
2023/04/24 01:40:53;;;;;;;1.55;1.45;;;10.20;99.90;;;;;;5413793;22;20200;-90
2023/04/24 01:43:20;;;;;;;1.35;1.25;;;10.20;99.90;;;;;;5537508;22;20218;-92
2023/04/24 01:45:47;;;;;;;0.90;0.90;;;10.20;99.90;;;;;;5056007;28;20211;-92
2023/04/24 01:48:14;;;;;;;0.80;0.80;;;10.10;99.90;;;;;;5060834;28;20182;-92
2023/04/24 01:50:41;;;;;;;0.90;0.90;;;10.10;99.90;;;;;;5051876;28;20282;-91
2023/04/24 01:53:08;;;;;;;1.77;0.77;;;10.10;99.90;;;;;;5059416;28;20197;-91
2023/04/24 01:58:12;;;;;;;0.80;0.80;;;10.10;99.90;;;;;;5162755;22;20244;-89
2023/04/24 02:00:39;;;;;;;1.35;0.82;;;10.10;99.90;;;;;;5052653;28;20187;-90
2023/04/24 02:03:06;;;;;;;1.23;0.85;;;10.10;99.90;;;;;;5050409;28;20179;-90
2023/04/24 02:05:33;;;;;;;0.75;0.75;;;10.00;99.90;;;;;;5033554;28;20190;-90
2023/04/24 02:08:00;;;;;;;1.25;0.80;;;10.00;99.90;;;;;;5051476;28;20258;-90
2023/04/24 02:10:27;;;;;;;0.80;0.68;;;10.10;99.90;;;;;;5173407;22;20218;-91
2023/04/24 02:12:53;;;;;;;0.80;0.80;;;10.00;99.90;;;;;;5054740;28;20205;-89
2023/04/24 02:15:22;;;;;;;0.73;0.73;;;10.00;99.90;;;;;;5053239;28;20211;-91
2023/04/24 02:17:49;;;;;;;0.80;0.80;;;9.90;99.90;;;;;;5044742;28;20203;-90
2023/04/24 02:20:17;;;;;;;1.77;0.80;;;9.90;99.90;;;;;;5029180;28;20188;-90
2023/04/24 02:22:44;;;;;;;0.80;0.80;;;9.90;99.90;;;;;;5014211;28;20179;-90
2023/04/24 02:25:11;;;;;;;0.70;0.70;;;9.90;99.90;;;;;;5130083;22;20234;-91
2023/04/24 02:27:38;;;;;;;0.70;0.70;;;10.00;99.90;;;;;;5038527;28;20211;-90
2023/04/24 02:30:07;;;;;;;1.17;0.95;;;10.00;99.90;;;;;;5034411;28;20211;-91
2023/04/24 02:32:35;;;;;;;1.00;0.70;;;10.10;99.90;;;;;;5034725;28;20579;-88
2023/04/24 02:35:02;;;;;;;1.20;0.70;;;10.10;99.90;;;;;;5048667;28;20200;-89
2023/04/24 02:37:29;;;;;;;1.75;0.70;;;10.10;99.90;;;;;;5047221;28;20186;-89
2023/04/24 02:39:56;;;;;;;2.25;0.90;;;10.00;99.90;;;;;;5045420;28;20218;-92
2023/04/24 02:42:25;;;;;;;0.90;0.85;;;10.00;99.90;;;;;;5033821;28;20198;-89
2023/04/24 02:44:52;;;;;;;0.70;0.70;;;10.00;99.90;;;;;;5016375;28;20206;-91
2023/04/24 02:47:19;;;;;;;0.70;0.70;;;10.00;99.90;;;;;;5048887;28;20201;-90
2023/04/24 02:49:49;;;;;;;1.13;0.80;;;9.90;99.90;;;;;;5051582;28;20186;-89
2023/04/24 02:52:16;;;;;;;1.95;0.60;;;10.00;99.90;;;;;;5028229;28;20237;-90
2023/04/24 02:54:46;;;;;;;1.23;1.13;;;10.00;99.90;;;;;;5449614;22;20205;-90
2023/04/24 02:57:13;;;;;;;0.80;0.80;;;10.00;99.90;;;;;;5119476;22;20238;-90
2023/04/24 02:59:40;;;;;;;0.90;0.90;;;10.10;99.90;;;;;;5016530;28;20207;-93
2023/04/24 03:02:07;;;;;;;0.50;0.50;;;10.00;99.90;;;;;;5282769;22;20236;-91
2023/04/24 03:04:33;;;;;;;1.10;0.80;;;9.90;99.90;;;;;;5036391;28;20210;-91
2023/04/24 03:07:02;;;;;;;1.30;0.80;;;9.90;99.90;;;;;;5049981;28;20182;-91
2023/04/24 03:09:29;;;;;;;1.13;0.88;;;9.90;99.90;;;;;;5051541;28;20343;-91
2023/04/24 03:11:56;;;;;;;0.95;0.68;;;9.90;99.90;;;;;;5055906;28;20221;-91
2023/04/24 03:14:23;;;;;;;0.80;0.80;;;9.90;99.90;;;;;;5037495;28;20515;-90
2023/04/24 03:16:50;;;;;;;0.52;0.52;;;9.90;99.90;;;;;;5038465;28;20195;-91
2023/04/24 03:21:52;;;;;;;1.08;0.70;;;9.90;99.90;;;;;;5190259;22;20220;-91
2023/04/24 03:24:21;;;;;;;0.85;0.70;;;9.80;99.90;;;;;;5072851;28;20202;-92
2023/04/24 03:26:47;;;;;;;1.20;0.82;;;9.80;99.90;;;;;;5071261;28;20202;-90
2023/04/24 03:29:14;;;;;;;0.70;0.70;;;9.80;99.90;;;;;;5071018;28;20192;-93
2023/04/24 03:31:41;;;;;;;1.20;0.93;;;9.80;99.90;;;;;;5071866;28;20235;-91
2023/04/24 04:20:41;;;;;;;1.85;1.52;;;9.70;99.90;;;;;;5173288;22;21193;-90
2023/04/24 04:23:08;;;;;;;3.17;1.13;;;9.80;99.90;;;;;;5082457;28;20181;-89
2023/04/24 04:25:35;;;;;;;2.80;1.13;;;9.70;99.90;;;;;;5256490;22;20210;-91
2023/04/24 04:30:38;;;;;;;0.98;0.90;;;9.80;99.90;;;;;;5452792;22;20202;-89
2023/04/24 04:33:05;;;;;;;2.05;1.02;;;9.70;99.90;;;;;;5398091;22;20214;-89
2023/04/24 04:35:31;;;;;;;0.82;0.82;;;9.70;99.90;;;;;;5267788;22;20209;-90
2023/04/24 04:38:00;;;;;;;0.80;0.80;;;9.80;99.90;;;;;;5064388;28;20197;-92
2023/04/24 04:40:28;;;;;;;1.98;0.93;;;9.70;99.90;;;;;;5070516;28;20202;-91
2023/04/24 04:42:55;;;;;;;0.70;0.70;;;9.70;99.90;;;;;;5068291;28;20183;-90
2023/04/24 04:45:24;;;;;;;0.70;0.70;;;9.60;99.90;;;;;;5047509;28;20206;-89
2023/04/24 04:47:51;;;;;;;1.45;0.90;;;9.70;99.90;;;;;;5061361;28;20225;-90
2023/04/24 04:50:19;;;;;;;1.48;1.00;;;9.70;99.90;;;;;;5052595;28;20224;-91
2023/04/24 04:52:46;;;;;;;0.95;0.88;;;9.70;99.90;;;;;;5056584;28;21063;-91
2023/04/24 04:55:14;;;;;;;0.93;0.85;;;9.60;99.90;;;;;;5044122;28;20582;-91
2023/04/24 04:57:41;;;;;;;0.85;0.85;;;9.70;99.90;;;;;;5067325;28;20202;-91
2023/04/24 05:00:11;;;;;;;2.25;0.98;;;9.70;99.90;;;;;;5056922;28;20203;-90
2023/04/24 05:02:38;;;;;;;0.85;0.73;;;9.60;99.90;;;;;;5056217;28;20194;-91
2023/04/24 05:05:06;;;;;;;0.80;0.80;;;9.60;99.90;;;;;;5064323;28;20194;-92
2023/04/24 05:07:33;;;;;;;1.95;1.02;;;9.70;99.90;;;;;;5047923;28;20234;-91
2023/04/24 05:10:00;;;;;;;1.20;1.10;;;9.70;99.90;;;;;;5055609;28;20186;-91
2023/04/24 05:12:28;;;;;;;2.05;0.88;;;9.70;99.90;;;;;;5052315;28;20206;-91
2023/04/24 05:14:55;;;;;;;0.93;0.93;;;9.70;99.90;;;;;;5069929;28;20216;-92
2023/04/24 05:17:22;;;;;;;2.05;1.00;;;9.70;99.90;;;;;;5067764;28;20216;-91
2023/04/24 05:19:49;;;;;;;1.40;0.75;;;9.80;99.90;;;;;;5056162;28;20416;-86
2023/04/24 05:22:18;;;;;;;0.90;0.90;;;9.80;99.90;;;;;;5053323;28;20194;-87
2023/04/24 05:24:45;;;;;;;3.33;1.00;;;9.80;99.90;;;;;;5035005;28;20194;-90
2023/04/24 05:27:11;;;;;;;0.70;0.70;;;9.80;99.90;;;;;;5050115;28;20198;-90
2023/04/24 05:29:40;;;;;;;0.95;0.73;;;9.90;99.90;;;;;;5052893;28;20203;-90
2023/04/24 05:32:08;;;;;;;1.25;1.00;;;9.90;99.90;;;;;;5035029;28;20225;-91
2023/04/24 05:34:34;;;;;;;1.48;0.90;;;9.90;99.90;;;;;;5053085;28;20210;-90
2023/04/24 05:37:02;;;;;;;1.80;0.90;;;9.90;99.90;;;;;;5051342;28;20289;-92
2023/04/24 05:39:30;;;;;;;1.17;0.80;;;10.00;99.90;;;;;;5054860;28;20198;-90
2023/04/24 05:41:57;;;;;;;0.70;0.70;;;10.10;99.90;;;;;;5050178;28;20592;-90
2023/04/24 05:44:25;;;;;;;0.88;0.70;;;10.20;99.90;;;;;;5005518;28;20290;-90
2023/04/24 05:46:55;;;;;;;2.92;0.68;;;10.30;99.90;;;;;;5016061;28;20198;-90
2023/04/24 05:49:23;;;;;;;1.08;0.70;;;10.30;99.90;;;;;;5050712;28;20198;-90
2023/04/24 05:51:50;;;;;;;1.20;0.80;;;10.30;99.90;;;;;;5025879;28;20236;-90
2023/04/24 05:54:17;;;;;;;1.00;0.80;;;10.30;99.80;;;;;;5044270;28;20201;-90
2023/04/24 05:56:44;;;;;;;1.75;0.80;;;10.30;99.90;;;;;;5052308;28;20690;-90
2023/04/24 05:59:11;;;;;;;1.13;0.88;;;10.20;99.90;;;;;;5036087;28;20552;-90
2023/04/24 06:01:38;;;;;;;0.80;0.80;;;10.20;99.90;;;;;;5049941;28;20209;-90
2023/04/24 06:04:09;;;;;;;1.25;0.90;;;10.20;99.90;;;;;;5038314;28;20271;-90
2023/04/24 06:06:36;;;;;;;1.63;0.90;;;10.20;99.90;;;;;;5048999;28;20194;-90
2023/04/24 06:09:04;;;;;;;0.77;0.75;;;10.30;99.90;;;;;;5039808;28;20201;-90
2023/04/24 06:11:30;;;;;;;1.92;0.90;;;10.30;99.90;;;;;;5010637;28;20300;-90
2023/04/24 06:13:58;;;;;;;0.90;0.75;;;10.50;99.40;;;;;;5045646;28;20202;-90
2023/04/24 06:16:25;;;;;;;1.95;0.77;;;10.60;99.00;;;;;;5050825;28;20285;-90
2023/04/24 06:18:52;;;;;;;0.68;0.68;;;10.60;99.10;;;;;;5034510;28;20284;-90
2023/04/24 06:21:21;;;;;;;0.77;0.60;;;10.80;99.00;;;;;;5046899;28;20201;-90
2023/04/24 06:23:49;;;;;;;1.75;0.50;;;10.90;98.90;;;;;;5032833;28;20276;-90
2023/04/24 06:26:18;;;;;;;1.00;0.75;;;10.90;98.10;;;;;;5049204;28;20231;-91
2023/04/24 06:28:45;;;;;;;0.73;0.70;;;11.00;98.00;;;;;;5049174;28;20276;-90
2023/04/24 06:31:13;;;;;;;3.30;0.75;;;11.00;97.30;;;;;;5050686;28;20224;-88
2023/04/24 06:33:40;;;;;;;1.10;0.80;;;11.00;98.00;;;;;;5030191;28;20200;-90
2023/04/24 06:36:07;;;;;;;0.80;0.68;;;11.00;97.60;;;;;;5042005;28;20201;-91
2023/04/24 06:38:35;;;;;;;0.65;0.60;;;11.00;97.80;;;;;;5051929;28;20690;-90
2023/04/24 06:41:04;;;;;;;2.42;0.88;;;11.00;97.40;;;;;;5027494;28;20232;-90
2023/04/24 06:43:31;;;;;;;0.63;0.63;;;11.10;97.00;;;;;;5032336;28;20206;-90
2023/04/24 06:45:59;;;;;;;0.75;0.70;;;11.20;98.00;;;;;;5051797;28;20272;-90
2023/04/24 06:48:26;;;;;;;0.65;0.65;;;11.30;96.70;;;;;;5050898;28;20293;-91
2023/04/24 06:50:53;;;;;;;1.05;0.60;;;11.40;96.40;;;;;;5032933;28;20226;-91
2023/04/24 06:53:21;;;;;;;1.30;0.63;;;11.60;96.10;;;;;;5028872;28;20259;-90
2023/04/24 06:55:51;;;;;;;0.75;0.73;;;11.70;95.60;;;;;;5047311;28;20202;-90
2023/04/24 06:58:19;;;;;;;0.60;0.60;;;11.80;95.50;;;;;;5051349;28;20276;-91
2023/04/24 07:00:46;;;;;;;0.80;0.80;;;11.80;95.30;;;;;;5049124;28;20300;-91
2023/04/24 07:03:14;;;;;;;0.68;0.60;;;11.90;94.70;;;;;;5031806;28;20233;-91
2023/04/24 07:05:42;;;;;;;0.50;0.50;;;11.90;93.30;;;;;;5048549;28;20209;-90
2023/04/24 07:08:11;;;;;;;0.52;0.52;;;11.90;94.60;;;;;;5044729;28;20194;-90
2023/04/24 07:10:38;;;;;;;0.65;0.65;;;12.10;94.80;;;;;;5025491;28;20271;-90
2023/04/24 07:13:08;;;;;;;0.65;0.60;;;12.30;92.70;;;;;;5044692;28;20288;-90
2023/04/24 07:15:35;;;;;;;0.70;0.63;;;12.30;94.40;;;;;;5027014;28;20679;-90
2023/04/24 07:18:02;;;;;;;0.80;0.65;;;12.30;92.40;;;;;;5039615;28;20309;-90
2023/04/24 07:20:29;;;;;;;0.82;0.60;;;12.30;92.60;;;;;;5049623;28;20197;-91
2023/04/24 07:22:56;;;;;;;0.60;0.57;;;12.30;92.80;;;;;;5033997;28;20543;-90
2023/04/24 07:25:23;;;;;;;0.50;0.50;;;12.40;93.50;;;;;;5051756;28;20198;-90
2023/04/24 07:27:50;;;;;;;0.65;0.65;;;12.40;92.90;;;;;;5036033;28;20661;-90
2023/04/24 07:30:19;;;;;;;1.05;0.80;;;12.50;91.40;;;;;;5032622;28;20201;-91
2023/04/24 07:32:45;;;;;;;0.75;0.73;;;12.60;91.00;;;;;;5046601;28;20665;-90
2023/04/24 07:35:12;;;;;;;0.65;0.50;;;12.70;90.90;;;;;;5050353;28;20202;-90
2023/04/24 07:37:40;;;;;;;1.15;0.60;;;12.80;90.30;;;;;;5034309;28;20562;-91
2023/04/24 07:40:09;;;;;;;0.95;0.95;;;12.80;89.00;;;;;;5043860;28;20198;-91
2023/04/24 07:42:36;;;;;;;0.80;0.80;;;12.80;90.00;;;;;;5048781;28;20701;-93
2023/04/24 07:45:03;;;;;;;0.50;0.50;;;12.70;90.50;;;;;;5051519;28;20202;-93
2023/04/24 07:47:32;;;;;;;0.70;0.70;;;12.60;90.90;;;;;;5043521;28;20261;-92
2023/04/24 07:49:59;;;;;;;0.75;0.55;;;12.60;90.70;;;;;;5047919;28;20646;-93
2023/04/24 07:52:26;;;;;;;1.77;0.80;;;12.30;90.30;;;;;;5047770;28;20225;-93
2023/04/24 07:54:58;;;;;;;0.88;0.70;;;12.30;90.80;;;;;;5032651;28;20202;-93
2023/04/24 07:57:25;;;;;;;0.93;0.90;;;12.30;90.80;;;;;;5051112;28;20197;-93
2023/04/24 07:59:52;;;;;;;0.77;0.70;;;12.30;90.80;;;;;;5045903;28;20198;-93
2023/04/24 08:02:21;;;;;;;2.10;1.10;;;12.40;91.20;;;;;;5028172;28;20209;-92
2023/04/24 08:04:49;;;;;;;2.78;0.80;;;12.40;90.90;;;;;;5047077;28;20213;-93
2023/04/24 08:07:16;;;;;;;1.23;0.70;;;12.40;90.90;;;;;;5048992;28;20669;-92
2023/04/24 08:09:43;;;;;;;1.00;0.90;;;12.30;90.10;;;;;;5031799;28;20197;-92
2023/04/24 08:12:10;;;;;;;6.03;1.48;;;12.40;90.50;;;;;;5046338;28;20213;-93
2023/04/24 08:14:37;;;;;;;1.08;0.70;;;12.60;90.90;;;;;;5034839;28;20659;-93
2023/04/24 08:17:05;;;;;;;1.05;0.70;;;12.80;88.90;;;;;;5015460;28;20199;-92
2023/04/24 08:19:32;;;;;;;0.77;0.77;;;12.90;88.20;;;;;;5051776;28;20297;-92
2023/04/24 08:22:00;;;;;;;2.03;0.80;;;13.00;89.00;;;;;;5043059;28;20204;-92
2023/04/24 08:24:27;;;;;;;1.33;0.73;;;12.90;86.50;;;;;;5037444;28;20994;-93
2023/04/24 08:26:56;;;;;;;1.27;1.00;;;12.90;87.30;;;;;;5028034;28;20210;-92
2023/04/24 08:29:23;;;;;;;2.90;2.08;;;12.70;88.70;;;;;;5053917;28;20210;-93
2023/04/24 08:31:50;;;;;;;0.70;0.70;;;12.50;89.90;;;;;;5057374;28;20234;-92
2023/04/24 08:34:17;;;;;;;0.80;0.80;;;12.40;90.20;;;;;;5044190;28;20572;-92
2023/04/24 08:36:44;;;;;;;0.70;0.60;;;12.20;89.80;;;;;;5039143;28;20564;-92
2023/04/24 08:39:12;;;;;;;2.25;0.80;;;12.10;90.80;;;;;;5031424;28;20198;-93
2023/04/24 08:41:42;;;;;;;3.45;0.93;;;11.90;91.20;;;;;;5054743;28;20204;-92
2023/04/24 08:44:10;;;;;;;0.60;0.60;;;11.90;91.80;;;;;;5046674;28;20284;-92
2023/04/24 08:46:37;;;;;;;0.82;0.82;;;11.60;93.60;;;;;;5043724;28;20202;-92
2023/04/24 08:49:05;;;;;;;1.75;0.93;;;11.10;96.00;;;;;;5022591;28;20254;-93
2023/04/24 08:51:32;;;;;;;0.90;0.90;;;10.90;97.70;;;;;;5053924;28;20232;-92
2023/04/24 08:53:59;;;;;;;1.20;1.10;;;10.90;98.40;;;;;;5047959;28;20205;-92
2023/04/24 08:56:30;;;;;;;3.90;1.20;;;10.90;93.90;;;;;;5055290;28;20284;-92
2023/04/24 08:58:58;;;;;;;1.30;1.13;;;11.20;93.70;;;;;;5055815;28;20194;-92
2023/04/24 09:01:27;;;;;;;3.70;1.20;;;11.50;92.50;;;;;;5049570;28;20202;-92
2023/04/24 09:03:56;;;;;;;1.10;1.00;;;11.60;91.20;;;;;;5047857;28;20208;-92
2023/04/24 09:06:25;;;;;;;4.40;1.17;;;11.60;90.20;;;;;;5043369;28;20198;-93
2023/04/24 09:08:54;;;;;;;1.95;1.15;;;11.60;89.40;;;;;;5048638;28;20213;-92
2023/04/24 09:11:22;;;;;;;1.10;1.00;;;11.40;90.00;;;;;;5056748;28;20264;-92
2023/04/24 09:13:52;;;;;;;1.33;1.10;;;11.40;88.70;;;;;;5053387;28;20260;-92
2023/04/24 09:16:20;;;;;;;1.48;1.20;;;11.50;88.20;;;;;;5053433;28;20720;-90
2023/04/24 09:18:47;;;;;;;1.33;1.15;;;11.50;87.90;;;;;;5051570;28;20220;-90
2023/04/24 09:21:14;;;;;;;2.17;1.05;;;11.50;86.60;;;;;;5052548;28;20200;-90
2023/04/24 09:23:41;;;;;;;1.92;1.20;;;11.60;86.30;;;;;;5053239;28;20646;-89
2023/04/24 09:26:11;;;;;;;2.97;1.00;;;11.60;87.50;;;;;;5050403;28;20572;-90
2023/04/24 09:28:39;;;;;;;2.22;1.02;;;11.60;88.10;;;;;;5042862;28;20203;-89
2023/04/24 09:31:10;;;;;;;0.90;0.90;;;11.70;86.70;;;;;;5053674;28;20209;-89
2023/04/24 09:33:37;;;;;;;1.00;1.00;;;11.90;86.30;;;;;;5052597;28;20206;-88
2023/04/24 09:36:05;;;;;;;1.20;1.10;;;12.00;83.30;;;;;;5046847;28;20205;-89
2023/04/24 09:38:34;;;;;;;3.83;0.90;;;12.00;79.50;;;;;;5025875;28;20388;-90
2023/04/24 09:41:03;;;;;;;1.40;1.00;;;12.10;79.30;;;;;;5047921;28;20194;-90
2023/04/24 09:43:30;;;;;;;2.15;1.15;;;12.50;79.40;;;;;;5039723;28;20212;-90
2023/04/24 09:45:58;;;;;;;1.42;1.33;;;12.80;75.80;;;;;;5053370;28;20610;-92
2023/04/24 09:48:33;;;;;;;2.10;1.00;;;13.00;66.00;;;;;;5017999;28;20206;-92
2023/04/24 09:51:02;;;;;;;1.42;1.27;;;13.10;65.80;;;;;;5046887;28;20202;-92
2023/04/24 09:53:30;;;;;;;1.33;1.10;;;13.20;63.90;;;;;;5053056;28;20222;-91
2023/04/24 09:56:02;;;;;;;3.42;1.05;;;13.40;62.40;;;;;;5046926;28;20201;-91
2023/04/24 09:58:30;;;;;;;1.55;1.38;;;13.50;64.00;;;;;;5023590;28;20259;-92
2023/04/24 10:00:57;;;;;;;1.40;1.30;;;13.50;56.70;;;;;;5047308;28;20222;-91
2023/04/24 10:03:27;;;;;;;1.85;1.05;;;13.40;57.00;;;;;;5053358;28;20212;-91
2023/04/24 10:05:59;;;;;;;2.72;1.15;;;13.40;63.20;;;;;;5018730;28;20202;-91
2023/04/24 10:08:27;;;;;;;2.33;1.20;;;13.60;61.60;;;;;;5029261;28;20292;-91
2023/04/24 10:10:55;;;;;;;1.95;1.48;;;13.60;64.40;;;;;;5051731;28;20202;-91
2023/04/24 10:13:28;;;;;;;1.65;1.20;;;13.70;54.20;;;;;;5053406;28;20690;-91
2023/04/24 10:15:57;;;;;;;3.00;1.40;;;13.70;55.50;;;;;;5050711;28;20194;-92
2023/04/24 10:18:25;;;;;;;1.55;1.00;;;13.70;57.60;;;;;;5048246;28;20557;-92
2023/04/24 10:20:54;;;;;;;3.33;1.17;;;13.80;54.90;;;;;;5034229;28;20206;-91
2023/04/24 10:23:24;;;;;;;2.15;1.45;;;13.70;52.00;;;;;;5034948;28;20224;-90
2023/04/24 10:25:55;;;;;;;1.95;1.45;;;13.60;54.00;;;;;;5052535;28;20252;-93
2023/04/24 10:28:23;;;;;;;1.33;1.20;;;13.70;54.60;;;;;;5041378;28;20203;-92
2023/04/24 10:30:58;;;;;;;1.60;1.30;;;13.70;50.20;;;;;;5052827;28;20631;-91
2023/04/24 10:33:27;;;;;;;2.78;1.73;;;13.80;53.90;;;;;;5045081;28;20229;-91
2023/04/24 10:35:55;;;;;;;5.20;1.27;;;14.10;57.80;;;;;;5035310;28;20206;-91
2023/04/24 10:38:27;;;;;;;2.75;1.00;;;14.50;50.90;;;;;;5034415;28;20240;-90
2023/04/24 10:41:07;;;;;;;2.10;1.50;;;14.60;45.90;;;;;;5051291;28;20240;-90
2023/04/24 10:43:35;;;;;;;1.75;1.15;;;14.40;43.20;;;;;;5041887;28;20194;-91
2023/04/24 10:46:03;;;;;;;1.52;1.10;;;14.10;46.70;;;;;;5047856;28;20201;-91
2023/04/24 10:48:31;;;;;;;1.30;1.20;;;13.80;51.00;;;;;;5052191;28;20205;-91
2023/04/24 10:50:57;;;;;;;2.58;1.30;;;13.70;57.00;;;;;;5039625;28;20194;-91
2023/04/24 10:53:29;;;;;;;1.40;1.30;;;13.40;53.10;;;;;;5043201;28;20557;-91
2023/04/24 10:56:00;;;;;;;1.10;1.00;;;13.40;56.50;;;;;;5053555;28;20197;-91
2023/04/24 10:58:39;;;;;;;5.85;1.58;;;13.30;60.00;;;;;;5054951;28;20198;-90
2023/04/24 11:01:06;;;;;;;2.92;1.10;;;12.60;75.60;;;;;;5050992;28;20281;-91
2023/04/24 11:03:36;;;;;;;2.08;0.80;;;11.70;87.90;;;;;;5048982;28;20289;-90
2023/04/24 11:06:05;;;;;;;1.67;1.08;;;11.10;91.90;;;;;;5031965;28;20209;-91
2023/04/24 11:08:38;;;;;;;1.35;1.00;;;10.80;92.40;;;;;;5034718;28;20201;-90
2023/04/24 11:11:10;;;;;;;1.90;1.00;;;10.70;92.40;;;;;;5042708;28;20281;-90
2023/04/24 11:14:04;;;;;;;2.33;1.08;;;10.80;93.60;;;;;;5052200;28;20272;-90
2023/04/24 11:16:33;;;;;;;1.38;1.00;;;11.30;94.20;;;;;;5048471;28;20614;-90
2023/04/24 11:19:06;;;;;;;0.80;0.80;;;11.70;93.10;;;;;;5043116;28;20249;-90
2023/04/24 11:21:44;;;;;;;1.13;0.93;;;12.30;92.10;;;;;;5043560;28;20206;-90
2023/04/24 11:27:32;;;;;;;2.05;1.30;;;13.50;86.40;;;;;;5047173;28;20201;-90
2023/04/24 11:30:04;;;;;;;0.80;0.80;;;13.80;75.20;;;;;;5031925;28;20199;-90
2023/04/24 11:32:35;;;;;;;1.15;1.10;;;13.90;70.60;;;;;;5053084;28;20926;-90
2023/04/24 11:35:06;;;;;;;2.60;1.08;;;13.80;66.30;;;;;;5055926;28;20236;-91
2023/04/24 11:37:36;;;;;;;2.17;1.20;;;13.60;68.20;;;;;;5053724;28;20260;-91
2023/04/24 11:40:07;;;;;;;1.30;1.20;;;13.70;69.50;;;;;;5054347;28;20214;-90
2023/04/24 11:42:37;;;;;;;1.40;1.30;;;13.80;70.90;;;;;;5049707;28;20286;-91
2023/04/24 11:45:10;;;;;;;1.67;1.30;;;13.80;69.60;;;;;;5028004;28;20205;-90
2023/04/24 11:47:39;;;;;;;1.50;1.40;;;14.20;72.00;;;;;;5042436;28;20228;-91
2023/04/24 11:53:00;;;;;;;1.20;1.10;;;14.60;59.20;;;;;;5044637;28;20224;-91
2023/04/24 11:58:27;;;;;;;3.00;1.60;;;13.80;61.60;;;;;;5054068;28;20228;-91
2023/04/24 12:00:59;;;;;;;2.47;1.27;;;13.70;67.60;;;;;;5056213;28;20268;-91
2023/04/24 12:03:26;;;;;;;1.77;1.30;;;13.50;68.30;;;;;;5053775;28;20228;-90
2023/04/24 12:05:53;;;;;;;2.55;1.25;;;13.50;66.40;;;;;;5036357;28;20232;-90
2023/04/24 12:08:28;;;;;;;1.83;1.30;;;13.40;65.20;;;;;;5046850;28;20289;-90
2023/04/24 12:13:38;;;;;;;2.58;1.10;;;13.30;57.90;;;;;;5051023;28;20221;-90
2023/04/24 12:16:05;;;;;;;1.33;1.10;;;13.30;60.30;;;;;;5032825;28;20260;-90
2023/04/24 12:18:33;;;;;;;1.75;1.30;;;13.50;60.30;;;;;;5050118;28;20690;-90
2023/04/24 12:21:20;;;;;;;1.20;1.10;;;13.60;55.90;;;;;;5051140;28;20672;-90
2023/04/24 12:23:47;;;;;;;1.98;1.13;;;13.70;51.60;;;;;;5030354;28;21133;-91
2023/04/24 12:26:22;;;;;;;2.20;1.25;;;13.60;55.50;;;;;;5056247;28;20568;-91
2023/04/24 12:28:50;;;;;;;1.65;1.17;;;13.60;50.10;;;;;;5035212;28;20290;-91
2023/04/24 12:31:20;;;;;;;2.47;1.10;;;13.50;51.10;;;;;;5049381;28;20194;-90
2023/04/24 12:33:47;;;;;;;1.88;1.27;;;13.60;51.40;;;;;;5045263;28;20247;-91
2023/04/24 12:36:26;;;;;;;1.73;1.00;;;13.70;51.60;;;;;;5053965;28;20237;-91
2023/04/24 12:38:55;;;;;;;1.77;1.20;;;13.90;49.30;;;;;;5032259;28;20212;-91
2023/04/24 12:41:49;;;;;;;3.47;1.80;;;14.30;50.70;;;;;;5045972;28;20201;-91
2023/04/24 12:44:18;;;;;;;5.30;2.45;;;14.40;43.80;;;;;;5032311;28;20226;-91
2023/04/24 12:46:45;;;;;;;1.38;1.08;;;14.50;46.70;;;;;;5053868;28;20240;-91
2023/04/24 12:49:13;;;;;;;1.92;1.27;;;14.50;50.90;;;;;;5046234;28;20194;-91
2023/04/24 12:52:08;;;;;;;1.63;1.35;;;14.40;42.50;;;;;;5040618;28;20205;-91
2023/04/24 12:55:04;;;;;;;1.40;1.20;;;14.40;42.00;;;;;;5029478;28;20583;-91
2023/04/24 12:57:33;;;;;;;1.42;1.30;;;14.50;43.00;;;;;;5056383;28;20209;-91
2023/04/24 13:00:00;;;;;;;3.20;1.55;;;14.20;50.70;;;;;;5037374;28;20194;-91
2023/04/24 13:02:30;;;;;;;1.52;1.40;;;14.00;59.00;;;;;;5054989;28;20255;-91
2023/04/24 13:04:58;;;;;;;2.67;1.45;;;14.20;60.50;;;;;;5048924;28;20217;-91
2023/04/24 13:07:26;;;;;;;2.10;1.52;;;14.10;62.00;;;;;;5054966;28;20288;-91
2023/04/24 13:09:55;;;;;;;3.33;1.38;;;14.20;55.00;;;;;;5053941;28;20205;-91
2023/04/24 13:12:23;;;;;;;3.75;1.50;;;14.10;52.40;;;;;;5050411;28;20213;-91
2023/04/24 13:18:09;;;;;;;2.40;1.42;;;14.30;53.90;;;;;;5046074;28;20285;-91
2023/04/24 13:20:45;;;;;;;1.73;1.48;;;14.70;56.50;;;;;;5038980;28;20198;-91
2023/04/24 13:23:17;;;;;;;3.88;1.30;;;14.60;48.30;;;;;;5032211;28;20777;-91
2023/04/24 13:25:44;;;;;;;2.45;1.50;;;14.30;50.70;;;;;;5049202;28;20190;-92
2023/04/24 13:28:11;;;;;;;2.00;1.40;;;13.90;47.40;;;;;;5035777;28;20286;-90
2023/04/24 13:30:40;;;;;;;3.75;1.20;;;13.80;50.30;;;;;;5053718;28;20201;-90
2023/04/24 13:33:07;;;;;;;2.00;1.58;;;13.60;50.10;;;;;;5036443;28;20275;-89
2023/04/24 13:35:34;;;;;;;1.83;1.30;;;13.60;50.10;;;;;;5054281;28;20206;-89
2023/04/24 13:38:05;;;;;;;3.78;1.60;;;13.60;47.40;;;;;;5052170;28;20201;-90
2023/04/24 13:40:32;;;;;;;1.52;1.42;;;13.80;46.20;;;;;;5050062;28;20284;-90
2023/04/24 13:42:59;;;;;;;1.70;1.38;;;14.10;38.00;;;;;;5053214;28;20559;-92
2023/04/24 13:45:26;;;;;;;2.25;1.50;;;14.20;36.10;;;;;;5051809;28;20662;-90
2023/04/24 13:47:56;;;;;;;3.22;1.70;;;14.20;32.50;;;;;;5065290;28;20202;-92
2023/04/24 13:50:24;;;;;;;1.60;1.48;;;14.10;36.10;;;;;;5062505;28;20198;-92
2023/04/24 13:52:51;;;;;;;2.10;1.90;;;14.00;33.40;;;;;;5366751;22;20226;-91
2023/04/24 14:00:17;;;;;;;4.50;1.85;;;14.00;34.60;;;;;;5722557;22;21366;-95
2023/04/24 14:02:44;;;;;;;2.70;1.50;;;14.10;37.20;;;;;;5030464;28;20262;-90
2023/04/24 14:05:13;;;;;;;2.58;1.40;;;14.10;38.90;;;;;;5012172;28;20206;-92
2023/04/24 14:07:41;;;;;;;1.63;1.52;;;14.10;38.50;;;;;;5028094;28;20201;-92
2023/04/24 14:10:09;;;;;;;1.95;1.50;;;13.90;35.60;;;;;;5025556;28;20213;-92
2023/04/24 14:12:36;;;;;;;1.85;1.65;;;13.80;35.50;;;;;;4989353;28;20199;-91
2023/04/24 14:15:07;;;;;;;2.05;1.23;;;13.70;37.80;;;;;;5017443;28;20214;-91
2023/04/24 14:38:15;;;;;;;3.03;1.60;;;14.70;27.60;;;;;;5035217;28;20257;-93
2023/04/24 14:40:43;;;;;;;3.45;1.65;;;14.80;27.70;;;;;;5038794;28;20233;-93
2023/04/24 14:43:10;;;;;;;6.10;2.67;;;14.70;26.40;;;;;;5034385;28;20307;-93
2023/04/24 14:45:37;;;;;;;2.10;1.40;;;14.60;27.50;;;;;;5015515;28;20198;-94
2023/04/24 14:48:05;;;;;;;4.50;1.40;;;14.50;27.40;;;;;;5036685;28;20218;-91
2023/04/24 14:50:32;;;;;;;2.22;1.63;;;14.60;27.50;;;;;;5030432;28;20298;-92